Time;durP1;ratioP1;P1;durP2;ratioP2;P2;SDS_P1;SDS_P2;PMS_P1;PMS_P2;Temp;Humidity;BMP_temperature;BMP_pressure;BME280_temperature;BME280_humidity;BME280_pressure;Samples;Min_cycle;Max_cycle;Signal;HPM_P1;HPM_P2
2024/04/02 00:01:29;;;;;;;9.75;6.85;;;7.80;99.90;;;;;;4987103;28;20540;-66
2024/04/02 00:04:10;;;;;;;8.43;6.65;;;7.80;99.90;;;;;;4986887;28;20125;-66
2024/04/02 00:06:36;;;;;;;10.80;6.63;;;7.80;99.90;;;;;;4986211;28;20061;-66
2024/04/02 00:09:02;;;;;;;7.38;6.68;;;7.90;99.90;;;;;;5015355;28;20489;-66
2024/04/02 00:11:27;;;;;;;9.25;6.88;;;7.80;99.90;;;;;;4983480;28;20647;-66
2024/04/02 00:13:53;;;;;;;10.00;6.65;;;7.80;99.90;;;;;;4984132;28;20046;-66
2024/04/02 00:16:19;;;;;;;9.02;6.93;;;7.80;99.90;;;;;;4988421;28;20066;-66
2024/04/02 00:18:44;;;;;;;8.75;6.90;;;7.80;99.90;;;;;;4992390;28;20081;-66
2024/04/02 00:21:10;;;;;;;9.18;6.05;;;7.80;99.90;;;;;;4983802;28;20046;-66
2024/04/02 00:23:35;;;;;;;9.40;6.50;;;8.20;99.90;;;;;;4986921;28;20042;-66
2024/04/02 00:26:02;;;;;;;11.27;6.85;;;7.80;99.90;;;;;;5020301;28;20430;-66
2024/04/02 00:28:28;;;;;;;9.30;6.68;;;7.80;99.90;;;;;;4986017;28;20389;-66
2024/04/02 00:30:59;;;;;;;7.22;6.53;;;7.80;99.90;;;;;;4985278;28;20041;-66
2024/04/02 00:33:24;;;;;;;10.90;7.85;;;7.80;99.90;;;;;;4984777;28;20459;-66
2024/04/02 00:35:59;;;;;;;9.55;7.47;;;7.80;99.90;;;;;;5017628;28;20038;-67
2024/04/02 00:38:25;;;;;;;7.20;6.50;;;7.80;99.90;;;;;;5020424;28;20038;-67
2024/04/02 00:40:52;;;;;;;9.13;7.28;;;7.80;99.90;;;;;;4987405;28;20031;-66
2024/04/02 00:43:18;;;;;;;9.05;8.07;;;7.80;99.90;;;;;;4987508;28;20175;-66
2024/04/02 00:45:43;;;;;;;10.90;7.95;;;7.80;99.90;;;;;;4987006;28;20493;-66
2024/04/02 00:48:10;;;;;;;11.13;6.88;;;7.80;99.90;;;;;;4985584;28;20039;-66
2024/04/02 00:50:36;;;;;;;8.27;7.15;;;7.80;99.90;;;;;;4987424;28;20084;-66
2024/04/02 00:53:02;;;;;;;9.68;7.18;;;7.90;99.90;;;;;;4988095;28;20043;-66
2024/04/02 00:55:28;;;;;;;10.82;7.45;;;7.90;99.90;;;;;;4984791;28;20142;-66
2024/04/02 00:57:54;;;;;;;8.90;7.57;;;7.90;99.90;;;;;;4986141;28;20049;-66
2024/04/02 01:00:19;;;;;;;9.25;7.38;;;7.90;99.90;;;;;;4972754;28;20053;-66
2024/04/02 01:02:45;;;;;;;8.75;7.45;;;7.90;99.90;;;;;;4987161;28;20378;-66
2024/04/02 01:05:11;;;;;;;9.85;6.95;;;7.90;99.90;;;;;;4986918;28;20077;-66
2024/04/02 01:07:39;;;;;;;10.30;7.45;;;7.90;99.90;;;;;;4987377;28;20543;-66
2024/04/02 01:10:08;;;;;;;7.95;6.78;;;7.90;99.90;;;;;;4989448;28;20121;-67
2024/04/02 01:12:34;;;;;;;8.80;7.45;;;7.90;99.90;;;;;;4986282;28;20049;-67
2024/04/02 01:15:00;;;;;;;7.18;6.47;;;7.90;99.90;;;;;;4989416;28;20081;-66
2024/04/02 01:17:25;;;;;;;8.77;6.68;;;7.80;99.90;;;;;;4987151;28;20070;-66
2024/04/02 01:19:51;;;;;;;6.22;5.72;;;7.90;99.90;;;;;;4986761;28;20038;-66
2024/04/02 01:22:17;;;;;;;8.55;5.95;;;7.90;99.90;;;;;;4986239;28;20401;-66
2024/04/02 01:24:47;;;;;;;8.38;5.35;;;7.90;99.90;;;;;;4987397;28;20042;-66
2024/04/02 01:27:12;;;;;;;6.55;5.28;;;7.90;99.90;;;;;;4986336;28;20081;-66
2024/04/02 01:29:39;;;;;;;7.40;5.55;;;7.90;99.90;;;;;;4984022;28;20073;-66
2024/04/02 01:32:05;;;;;;;9.05;4.93;;;8.00;99.90;;;;;;4985374;28;20030;-66
2024/04/02 01:34:33;;;;;;;5.25;4.75;;;7.90;99.90;;;;;;4984261;28;20112;-66
2024/04/02 01:36:58;;;;;;;5.20;4.60;;;8.00;99.90;;;;;;4985889;28;20042;-66
2024/04/02 01:39:24;;;;;;;5.72;4.40;;;7.90;99.90;;;;;;4985129;28;20437;-66
2024/04/02 01:41:50;;;;;;;5.45;4.20;;;7.90;99.90;;;;;;4987999;28;20038;-67
2024/04/02 01:44:15;;;;;;;6.68;4.20;;;7.80;99.90;;;;;;4983630;28;20050;-66
2024/04/02 01:46:41;;;;;;;5.35;4.28;;;7.80;99.90;;;;;;4983339;28;20069;-66
2024/04/02 01:49:07;;;;;;;7.10;3.63;;;7.80;99.90;;;;;;4985234;28;20461;-66
2024/04/02 01:51:33;;;;;;;5.55;3.92;;;7.80;99.90;;;;;;5016943;28;20114;-66
2024/04/02 01:53:59;;;;;;;6.97;3.75;;;7.80;99.90;;;;;;4985341;28;20473;-66
2024/04/02 01:56:24;;;;;;;4.78;3.83;;;7.80;99.90;;;;;;4987896;28;20034;-66
2024/04/02 01:58:50;;;;;;;5.15;3.47;;;7.80;99.90;;;;;;4985428;28;20108;-66
2024/04/02 02:01:16;;;;;;;3.67;3.33;;;7.80;99.90;;;;;;4985550;28;20410;-66
2024/04/02 02:03:41;;;;;;;3.88;3.58;;;7.70;99.90;;;;;;4986483;28;20081;-66
2024/04/02 02:06:07;;;;;;;4.55;3.72;;;7.70;99.90;;;;;;4987659;28;20056;-66
2024/04/02 02:08:33;;;;;;;3.88;3.20;;;7.70;99.90;;;;;;4969840;28;20444;-66
2024/04/02 02:11:03;;;;;;;4.28;3.63;;;7.60;99.90;;;;;;4988785;28;20041;-67
2024/04/02 02:13:30;;;;;;;4.78;3.53;;;7.70;99.90;;;;;;4984941;28;20046;-66
2024/04/02 02:16:02;;;;;;;7.35;3.45;;;7.60;99.90;;;;;;4986275;28;20409;-66
2024/04/02 02:18:31;;;;;;;7.90;3.90;;;7.60;99.90;;;;;;4987988;28;20089;-66
2024/04/02 02:20:58;;;;;;;4.35;3.10;;;7.50;99.90;;;;;;4984990;28;20042;-66
2024/04/02 02:23:24;;;;;;;3.88;3.50;;;7.40;99.90;;;;;;4987338;28;20046;-66
2024/04/02 02:25:50;;;;;;;4.78;3.40;;;7.40;99.90;;;;;;4988154;28;20868;-66
2024/04/02 02:28:17;;;;;;;5.47;4.00;;;7.40;99.90;;;;;;5013859;28;20061;-66
2024/04/02 02:30:42;;;;;;;8.02;4.05;;;7.40;99.90;;;;;;4983525;28;20109;-66
2024/04/02 02:33:08;;;;;;;7.43;4.38;;;7.40;99.90;;;;;;4986264;28;20489;-66
2024/04/02 02:35:34;;;;;;;6.85;4.15;;;7.40;99.90;;;;;;4984472;28;20097;-66
2024/04/02 02:38:00;;;;;;;10.20;5.05;;;7.40;99.90;;;;;;4982643;28;20057;-67
2024/04/02 02:40:25;;;;;;;5.85;4.50;;;7.30;99.90;;;;;;4984094;28;20088;-66
2024/04/02 02:42:51;;;;;;;6.00;5.15;;;7.40;99.90;;;;;;4986428;28;20045;-66
2024/04/02 02:45:17;;;;;;;6.30;5.38;;;7.30;99.90;;;;;;4987052;28;20133;-67
2024/04/02 02:47:42;;;;;;;5.55;4.78;;;7.40;99.90;;;;;;4985302;28;20580;-66
2024/04/02 02:50:08;;;;;;;7.30;5.20;;;7.30;99.90;;;;;;4981406;28;20133;-66
2024/04/02 02:52:34;;;;;;;7.00;5.03;;;7.30;99.90;;;;;;4984452;28;20042;-66
2024/04/02 02:54:59;;;;;;;6.13;5.53;;;7.30;99.90;;;;;;4984272;28;20039;-66
2024/04/02 02:57:25;;;;;;;6.00;5.30;;;7.30;99.90;;;;;;4985076;28;20125;-66
2024/04/02 02:59:51;;;;;;;8.55;5.80;;;7.30;99.90;;;;;;4967334;28;20061;-66
2024/04/02 03:02:16;;;;;;;6.85;5.25;;;7.30;99.90;;;;;;4985303;28;20042;-66
2024/04/02 03:04:42;;;;;;;10.50;5.30;;;7.20;99.90;;;;;;4985100;28;20100;-66
2024/04/02 03:07:07;;;;;;;5.53;5.03;;;7.30;99.90;;;;;;4986741;28;20511;-66
2024/04/02 03:09:36;;;;;;;6.72;5.60;;;7.20;99.90;;;;;;4987314;28;20042;-67
2024/04/02 03:12:02;;;;;;;5.93;5.30;;;7.30;99.90;;;;;;4986184;28;20548;-67
2024/04/02 03:14:31;;;;;;;5.60;4.90;;;7.20;99.90;;;;;;4985271;28;20053;-67
2024/04/02 03:16:56;;;;;;;6.00;5.40;;;7.20;99.90;;;;;;4985119;28;20035;-67
2024/04/02 03:19:22;;;;;;;6.07;5.45;;;7.20;99.90;;;;;;4985337;28;20535;-67
2024/04/02 03:21:48;;;;;;;5.90;4.85;;;7.20;99.90;;;;;;4985303;28;20042;-66
2024/04/02 03:24:13;;;;;;;6.88;5.80;;;7.20;99.90;;;;;;4988777;28;20042;-66
2024/04/02 03:26:39;;;;;;;5.47;4.65;;;7.30;99.90;;;;;;4982850;28;20069;-66
2024/04/02 03:29:04;;;;;;;6.68;4.68;;;7.20;99.90;;;;;;4979116;28;20125;-66
2024/04/02 03:31:30;;;;;;;5.57;5.00;;;7.30;99.90;;;;;;4986685;28;20038;-67
2024/04/02 03:33:59;;;;;;;5.82;4.60;;;7.20;99.90;;;;;;4983135;28;20038;-67
2024/04/02 03:36:24;;;;;;;4.43;4.03;;;7.20;99.90;;;;;;4983892;28;20477;-66
2024/04/02 03:38:50;;;;;;;6.82;4.80;;;7.20;99.90;;;;;;4983346;28;20050;-66
2024/04/02 03:41:16;;;;;;;6.45;5.07;;;7.20;99.90;;;;;;4984159;28;20134;-66
2024/04/02 03:43:42;;;;;;;8.25;4.75;;;7.20;99.90;;;;;;5015777;28;20125;-66
2024/04/02 03:46:09;;;;;;;6.15;4.90;;;7.20;99.90;;;;;;4981267;28;20402;-67
2024/04/02 03:48:36;;;;;;;6.50;4.22;;;7.20;99.90;;;;;;4984553;28;20038;-66
2024/04/02 03:51:02;;;;;;;5.07;4.57;;;7.10;99.90;;;;;;4986324;28;20394;-66
2024/04/02 03:53:27;;;;;;;5.97;5.13;;;7.10;99.90;;;;;;4985235;28;20572;-67
2024/04/02 03:55:57;;;;;;;5.03;4.53;;;7.10;99.90;;;;;;4984607;28;20122;-67
2024/04/02 03:58:24;;;;;;;4.72;4.07;;;7.10;99.90;;;;;;5014191;28;20042;-66
2024/04/02 04:00:50;;;;;;;5.13;4.30;;;7.10;99.90;;;;;;4980836;28;20093;-66
2024/04/02 04:03:17;;;;;;;8.73;4.50;;;7.00;99.90;;;;;;4981520;28;20038;-66
2024/04/02 04:05:43;;;;;;;6.68;4.68;;;7.00;99.90;;;;;;4983446;28;20057;-67
2024/04/02 04:08:08;;;;;;;4.95;4.47;;;7.10;99.90;;;;;;4984842;28;20068;-67
2024/04/02 04:10:37;;;;;;;6.30;4.80;;;7.00;99.90;;;;;;4983493;28;20035;-66
2024/04/02 04:13:03;;;;;;;5.68;4.45;;;7.00;99.90;;;;;;4982669;28;20046;-66
2024/04/02 04:15:29;;;;;;;5.90;4.05;;;7.00;99.90;;;;;;4981930;28;20054;-67
2024/04/02 04:17:55;;;;;;;6.05;4.57;;;7.00;99.90;;;;;;4983470;28;20053;-66
2024/04/02 04:20:20;;;;;;;6.15;4.43;;;7.00;99.90;;;;;;4984514;28;20035;-67
2024/04/02 04:22:50;;;;;;;7.38;4.43;;;7.00;99.90;;;;;;4986660;28;20038;-66
2024/04/02 04:25:16;;;;;;;7.30;4.57;;;7.00;99.90;;;;;;4977187;28;20085;-67
2024/04/02 04:27:44;;;;;;;5.28;4.30;;;6.90;99.90;;;;;;4983039;28;20639;-66
2024/04/02 04:30:11;;;;;;;5.18;4.05;;;6.90;99.90;;;;;;4980826;28;20110;-66
2024/04/02 04:32:37;;;;;;;5.68;4.15;;;6.90;99.90;;;;;;4982710;28;20069;-66
2024/04/02 04:35:03;;;;;;;4.57;4.13;;;6.90;99.90;;;;;;4983490;28;20476;-66
2024/04/02 04:37:32;;;;;;;6.25;4.05;;;6.90;99.90;;;;;;5014056;28;20042;-66
2024/04/02 04:39:58;;;;;;;6.63;4.28;;;6.90;99.90;;;;;;4979893;28;20077;-66
2024/04/02 04:42:24;;;;;;;8.18;4.47;;;6.80;99.90;;;;;;4981136;28;20081;-66
2024/04/02 04:44:50;;;;;;;4.90;3.80;;;6.90;99.90;;;;;;4978282;28;20079;-66
2024/04/02 04:47:16;;;;;;;6.80;4.63;;;6.90;99.90;;;;;;4978974;28;20052;-66
2024/04/02 04:49:42;;;;;;;6.38;4.18;;;6.90;99.90;;;;;;4980464;28;20077;-66
2024/04/02 04:52:08;;;;;;;7.03;4.32;;;6.90;99.90;;;;;;4982845;28;20050;-66
2024/04/02 04:54:34;;;;;;;6.88;4.65;;;6.90;99.90;;;;;;4984736;28;20105;-66
2024/04/02 04:57:00;;;;;;;5.82;4.45;;;7.00;99.90;;;;;;4983783;28;20030;-66
2024/04/02 04:59:26;;;;;;;4.28;3.88;;;6.90;99.90;;;;;;4985639;28;20093;-66
2024/04/02 05:01:52;;;;;;;4.50;4.10;;;6.90;99.90;;;;;;4981755;28;20101;-66
2024/04/02 05:04:18;;;;;;;6.25;4.50;;;6.90;99.90;;;;;;4985306;28;20129;-66
2024/04/02 05:06:44;;;;;;;6.07;4.72;;;6.90;99.90;;;;;;4990726;28;20604;-66
2024/04/02 05:09:13;;;;;;;5.32;4.80;;;6.90;99.90;;;;;;4988129;28;20085;-66
2024/04/02 05:11:39;;;;;;;4.90;4.40;;;6.90;99.90;;;;;;4985481;28;20371;-66
2024/04/02 05:14:05;;;;;;;4.38;3.97;;;6.80;99.90;;;;;;4987601;28;20039;-66
2024/04/02 05:16:33;;;;;;;4.95;4.45;;;6.80;99.90;;;;;;4988643;28;20073;-67
2024/04/02 05:18:59;;;;;;;5.00;4.32;;;6.90;99.90;;;;;;4988888;28;20478;-67
2024/04/02 05:21:24;;;;;;;7.32;5.32;;;6.90;99.90;;;;;;4987486;28;20049;-66
2024/04/02 05:23:50;;;;;;;5.72;4.78;;;7.00;99.90;;;;;;4987493;28;20077;-66
2024/04/02 05:26:19;;;;;;;7.25;5.07;;;7.10;99.90;;;;;;4987938;28;20034;-66
2024/04/02 05:28:44;;;;;;;5.95;5.38;;;7.10;99.90;;;;;;4986033;28;20039;-66
2024/04/02 05:31:11;;;;;;;4.85;4.35;;;7.20;99.90;;;;;;4984516;28;20670;-66
2024/04/02 05:33:38;;;;;;;8.55;4.65;;;7.30;99.90;;;;;;4983403;28;20042;-66
2024/04/02 05:36:03;;;;;;;5.88;4.70;;;7.50;99.90;;;;;;5016633;28;20081;-66
2024/04/02 05:38:29;;;;;;;5.38;4.50;;;7.80;99.90;;;;;;4986893;28;20066;-66
2024/04/02 05:40:55;;;;;;;5.05;4.38;;;7.90;99.90;;;;;;5018843;28;20039;-67
2024/04/02 05:43:20;;;;;;;4.32;3.88;;;8.30;99.90;;;;;;4985113;28;20584;-67
2024/04/02 05:45:46;;;;;;;4.55;3.60;;;8.90;99.90;;;;;;4980192;28;20389;-67
2024/04/02 05:48:11;;;;;;;4.97;3.25;;;9.50;99.90;;;;;;4986321;28;20034;-67
2024/04/02 05:50:37;;;;;;;3.55;3.00;;;10.10;99.90;;;;;;4986538;28;20034;-67
2024/04/02 05:53:03;;;;;;;3.92;3.22;;;10.50;99.90;;;;;;4973581;28;20057;-66
2024/04/02 05:55:28;;;;;;;5.15;2.92;;;10.80;99.90;;;;;;4985044;28;20456;-66
2024/04/02 05:57:56;;;;;;;2.60;2.40;;;11.20;99.90;;;;;;4985602;28;20049;-67
2024/04/02 06:00:23;;;;;;;3.75;3.00;;;11.30;99.90;;;;;;4981703;28;20089;-67
2024/04/02 06:02:48;;;;;;;3.63;2.88;;;11.00;99.90;;;;;;4984741;28;20042;-67
2024/04/02 06:05:14;;;;;;;6.75;3.25;;;10.60;99.90;;;;;;4982128;28;20034;-67
2024/04/02 06:07:40;;;;;;;4.22;3.42;;;10.30;99.90;;;;;;4981712;28;20050;-67
2024/04/02 06:10:05;;;;;;;5.32;3.20;;;10.00;99.90;;;;;;4982430;28;20039;-67
2024/04/02 06:12:31;;;;;;;4.20;3.25;;;9.80;99.90;;;;;;4980921;28;20030;-67
2024/04/02 06:14:57;;;;;;;6.45;3.08;;;10.10;99.90;;;;;;4979335;28;20102;-67
2024/04/02 06:17:22;;;;;;;3.45;2.72;;;11.10;99.90;;;;;;4980555;28;20082;-67
2024/04/02 06:19:48;;;;;;;4.30;2.70;;;11.50;99.90;;;;;;4984188;28;20394;-67
2024/04/02 06:22:14;;;;;;;4.40;2.50;;;11.50;99.90;;;;;;4982420;28;20050;-67
2024/04/02 06:24:40;;;;;;;3.83;2.70;;;11.20;99.90;;;;;;4983152;28;20045;-67
2024/04/02 06:27:05;;;;;;;3.28;2.78;;;10.90;99.90;;;;;;4981194;28;20055;-67
2024/04/02 06:29:31;;;;;;;4.18;3.33;;;10.60;99.90;;;;;;4979425;28;20042;-67
2024/04/02 06:31:57;;;;;;;4.05;3.45;;;10.30;99.90;;;;;;4989947;28;20080;-67
2024/04/02 06:34:23;;;;;;;4.25;3.85;;;10.30;99.90;;;;;;4981575;28;20077;-67
2024/04/02 06:36:48;;;;;;;3.78;2.75;;;10.10;99.90;;;;;;4978694;28;20493;-67
2024/04/02 06:39:14;;;;;;;4.97;3.53;;;10.00;99.90;;;;;;4980648;28;20409;-67
2024/04/02 06:41:40;;;;;;;4.25;3.13;;;9.80;99.90;;;;;;4982818;28;20038;-67
2024/04/02 06:44:06;;;;;;;6.45;3.25;;;9.70;99.90;;;;;;4984038;28;20045;-67
2024/04/02 06:46:31;;;;;;;5.63;3.53;;;9.60;99.90;;;;;;4980891;28;20046;-67
2024/04/02 06:49:00;;;;;;;5.93;3.20;;;9.60;99.90;;;;;;4983744;28;20408;-66
2024/04/02 06:51:26;;;;;;;5.88;3.20;;;9.90;99.90;;;;;;4981481;28;20047;-67
2024/04/02 06:53:53;;;;;;;5.38;3.13;;;9.50;99.90;;;;;;5007772;28;20690;-67
2024/04/02 06:56:18;;;;;;;5.38;3.50;;;9.40;99.90;;;;;;4977526;28;20085;-67
2024/04/02 06:58:44;;;;;;;6.13;3.38;;;9.40;99.90;;;;;;5008758;28;20121;-66
2024/04/02 07:01:11;;;;;;;4.38;2.90;;;9.90;99.90;;;;;;4982077;28;20042;-66
2024/04/02 07:03:37;;;;;;;5.13;3.30;;;9.50;99.90;;;;;;4979936;28;20054;-67
2024/04/02 07:06:04;;;;;;;4.40;3.15;;;10.10;99.90;;;;;;4983778;28;20396;-67
2024/04/02 07:08:29;;;;;;;3.53;3.20;;;9.60;99.90;;;;;;4983976;28;20141;-67
2024/04/02 07:10:58;;;;;;;4.75;3.25;;;9.60;99.90;;;;;;4983907;28;20490;-67
2024/04/02 07:13:27;;;;;;;4.55;3.17;;;9.70;99.90;;;;;;4979680;28;20038;-67
2024/04/02 07:15:53;;;;;;;6.43;3.60;;;9.70;99.90;;;;;;4981628;28;20042;-67
2024/04/02 07:18:19;;;;;;;5.78;3.08;;;9.70;99.90;;;;;;4961773;28;20046;-66
2024/04/02 07:20:45;;;;;;;5.28;3.00;;;9.90;99.90;;;;;;4983662;28;20030;-66
2024/04/02 07:23:11;;;;;;;4.18;3.03;;;9.80;99.90;;;;;;4979552;28;20682;-66
2024/04/02 07:25:36;;;;;;;5.18;3.00;;;9.80;99.90;;;;;;4982030;28;20031;-67
2024/04/02 07:28:02;;;;;;;4.20;2.53;;;9.80;99.90;;;;;;4980409;28;20134;-67
2024/04/02 07:30:28;;;;;;;4.47;3.03;;;9.80;99.90;;;;;;4979563;28;20038;-67
2024/04/02 07:32:54;;;;;;;6.72;2.85;;;9.90;99.90;;;;;;4995734;28;20042;-67
2024/04/02 07:35:19;;;;;;;5.68;3.25;;;9.90;99.90;;;;;;4980413;28;20043;-66
2024/04/02 07:37:45;;;;;;;6.40;2.90;;;9.90;99.90;;;;;;4982167;28;20564;-66
2024/04/02 07:40:11;;;;;;;4.45;2.50;;;9.90;99.90;;;;;;4977977;28;20108;-67
2024/04/02 07:42:36;;;;;;;7.25;3.20;;;9.90;99.90;;;;;;4965771;28;20034;-67
2024/04/02 07:45:02;;;;;;;4.13;2.80;;;9.80;99.90;;;;;;4979613;28;20051;-67
2024/04/02 07:47:28;;;;;;;8.02;3.70;;;9.80;99.90;;;;;;4979994;28;20084;-67
2024/04/02 07:49:54;;;;;;;5.18;3.08;;;9.80;99.90;;;;;;4979458;28;20070;-67
2024/04/02 07:52:20;;;;;;;6.70;3.58;;;9.80;99.90;;;;;;4977571;28;20065;-67
2024/04/02 07:54:46;;;;;;;5.03;2.78;;;9.80;99.90;;;;;;5017484;28;20034;-67
2024/04/02 07:57:11;;;;;;;7.53;3.10;;;10.10;99.90;;;;;;5012290;28;20354;-67
2024/04/02 07:59:37;;;;;;;5.60;3.47;;;9.80;99.90;;;;;;4974795;28;20462;-67
2024/04/02 08:02:03;;;;;;;5.78;3.30;;;9.80;99.90;;;;;;4981114;28;20053;-66
2024/04/02 08:04:28;;;;;;;3.85;2.75;;;9.80;99.90;;;;;;4981259;28;20796;-67
2024/04/02 08:06:54;;;;;;;5.28;3.08;;;9.80;99.90;;;;;;4987138;28;20497;-66
2024/04/02 08:09:20;;;;;;;4.47;2.88;;;9.80;99.90;;;;;;4981045;28;20038;-66
2024/04/02 08:11:47;;;;;;;5.22;2.60;;;10.00;99.90;;;;;;4982035;28;20042;-66
2024/04/02 08:14:14;;;;;;;5.15;3.05;;;9.90;99.90;;;;;;4975726;28;20049;-66
2024/04/02 08:16:40;;;;;;;8.00;2.75;;;9.90;99.90;;;;;;5013882;28;20046;-66
2024/04/02 08:19:05;;;;;;;6.40;2.95;;;9.90;99.90;;;;;;4963672;28;20090;-66
2024/04/02 08:21:31;;;;;;;7.13;3.25;;;9.90;99.90;;;;;;5013600;28;20043;-66
2024/04/02 08:23:57;;;;;;;9.13;2.97;;;10.00;99.90;;;;;;4982924;28;20038;-66
2024/04/02 08:26:23;;;;;;;5.18;3.08;;;10.00;99.90;;;;;;4982250;28;20034;-66
2024/04/02 08:28:49;;;;;;;9.30;3.58;;;10.10;99.90;;;;;;4979626;28;20031;-66
2024/04/02 08:31:14;;;;;;;8.93;3.30;;;10.00;99.90;;;;;;4978414;28;20042;-66
2024/04/02 08:33:40;;;;;;;6.75;2.72;;;10.10;99.90;;;;;;4980855;28;20043;-67
2024/04/02 08:36:06;;;;;;;6.32;2.50;;;10.20;99.90;;;;;;4981712;28;20481;-67
2024/04/02 08:38:31;;;;;;;5.65;2.50;;;10.20;99.90;;;;;;4985445;28;20062;-67
2024/04/02 08:41:06;;;;;;;4.85;3.08;;;10.20;99.90;;;;;;4987697;28;20035;-67
2024/04/02 08:43:32;;;;;;;7.72;4.03;;;10.20;99.90;;;;;;4984552;28;20038;-67
2024/04/02 08:45:59;;;;;;;9.18;3.35;;;10.40;99.90;;;;;;4983338;28;20097;-67
2024/04/02 08:48:26;;;;;;;9.07;3.67;;;10.20;99.90;;;;;;4985624;28;20050;-67
2024/04/02 08:50:53;;;;;;;8.02;3.55;;;10.40;99.90;;;;;;4981590;28;20039;-67
2024/04/02 08:53:19;;;;;;;10.68;3.97;;;10.40;99.90;;;;;;4977859;28;20066;-67
2024/04/02 08:55:46;;;;;;;11.63;4.10;;;10.60;99.90;;;;;;4982142;28;20039;-67
2024/04/02 08:58:15;;;;;;;6.45;3.42;;;10.70;99.90;;;;;;4977751;28;20053;-67
2024/04/02 09:00:41;;;;;;;8.70;3.30;;;10.80;99.90;;;;;;4981154;28;20038;-67
2024/04/02 09:03:19;;;;;;;9.93;4.38;;;10.80;99.90;;;;;;4984782;28;20031;-67
2024/04/02 09:05:44;;;;;;;9.15;3.85;;;11.00;99.90;;;;;;4983335;28;20051;-67
2024/04/02 09:08:12;;;;;;;8.40;3.45;;;11.00;99.90;;;;;;4981964;28;20069;-67
2024/04/02 09:10:38;;;;;;;11.20;3.50;;;11.10;99.90;;;;;;4980818;28;20117;-67
2024/04/02 09:13:04;;;;;;;8.07;3.67;;;11.00;99.90;;;;;;4987644;28;20039;-67
2024/04/02 09:15:29;;;;;;;6.90;3.13;;;10.90;99.90;;;;;;4985213;28;20465;-67
2024/04/02 09:17:55;;;;;;;8.10;3.47;;;11.00;99.90;;;;;;4984854;28;20047;-67
2024/04/02 09:20:22;;;;;;;7.53;2.97;;;10.90;99.90;;;;;;4981420;28;20041;-67
2024/04/02 09:22:48;;;;;;;5.72;2.75;;;11.00;99.90;;;;;;4982846;28;20038;-67
2024/04/02 09:25:14;;;;;;;12.00;3.50;;;11.00;99.90;;;;;;5010011;28;20057;-67
2024/04/02 09:27:39;;;;;;;6.38;3.03;;;11.00;99.90;;;;;;4980126;28;20047;-67
2024/04/02 09:30:06;;;;;;;7.45;2.65;;;11.00;99.90;;;;;;4981927;28;20486;-67
2024/04/02 09:32:38;;;;;;;12.63;3.80;;;11.00;99.90;;;;;;4985836;28;20065;-67
2024/04/02 09:35:14;;;;;;;8.48;3.67;;;11.00;99.90;;;;;;5013809;28;20038;-67
2024/04/02 09:37:44;;;;;;;12.32;4.80;;;11.00;99.90;;;;;;4982427;28;20909;-67
2024/04/02 09:40:11;;;;;;;10.25;4.60;;;11.30;99.90;;;;;;4981454;28;20050;-67
2024/04/02 09:42:39;;;;;;;11.40;4.53;;;11.00;99.90;;;;;;4984730;28;20437;-67
2024/04/02 09:45:08;;;;;;;11.05;4.70;;;11.10;99.90;;;;;;4983337;28;20413;-67
2024/04/02 09:47:35;;;;;;;10.73;4.20;;;11.10;99.90;;;;;;4983744;28;20401;-67
2024/04/02 09:50:03;;;;;;;8.75;4.25;;;11.30;99.90;;;;;;4978315;28;20050;-67
2024/04/02 09:52:29;;;;;;;10.23;4.07;;;11.30;99.90;;;;;;4982570;28;20057;-67
2024/04/02 09:54:57;;;;;;;8.25;3.85;;;11.50;99.90;;;;;;4986557;28;20039;-67
2024/04/02 09:57:24;;;;;;;12.32;5.45;;;11.70;99.90;;;;;;5016775;28;20397;-67
2024/04/02 09:59:50;;;;;;;11.52;4.18;;;11.70;99.90;;;;;;4983126;28;20070;-67
2024/04/02 10:02:24;;;;;;;11.02;4.03;;;11.60;99.90;;;;;;4982796;28;20124;-67
2024/04/02 10:04:51;;;;;;;11.40;4.25;;;11.60;99.90;;;;;;4982796;28;20177;-67
2024/04/02 10:07:27;;;;;;;9.07;4.20;;;11.60;99.90;;;;;;4981512;28;20054;-67
2024/04/02 10:10:00;;;;;;;8.38;3.95;;;11.60;99.90;;;;;;4982635;28;20133;-67
2024/04/02 10:12:30;;;;;;;9.20;3.50;;;11.50;99.90;;;;;;4983948;28;20054;-67
2024/04/02 10:14:57;;;;;;;11.80;4.95;;;11.50;99.90;;;;;;5014459;28;20409;-67
2024/04/02 10:17:22;;;;;;;8.98;3.63;;;11.50;99.90;;;;;;4982284;28;20096;-67
2024/04/02 10:19:50;;;;;;;6.03;3.92;;;11.40;99.90;;;;;;4980385;28;20121;-67
2024/04/02 10:22:36;;;;;;;10.30;4.55;;;11.50;99.90;;;;;;4984045;28;20042;-67
2024/04/02 10:25:14;;;;;;;9.05;3.80;;;11.70;99.90;;;;;;4984996;28;20058;-67
2024/04/02 10:27:47;;;;;;;11.60;4.47;;;11.50;99.90;;;;;;4982870;28;20046;-67
2024/04/02 10:30:16;;;;;;;9.02;4.28;;;11.60;99.90;;;;;;4981706;28;20043;-67
2024/04/02 10:32:43;;;;;;;7.55;4.53;;;11.60;99.90;;;;;;4984784;28;20056;-67
2024/04/02 10:35:24;;;;;;;8.15;3.78;;;11.80;99.90;;;;;;4984037;28;20091;-67
2024/04/02 10:37:52;;;;;;;8.48;3.78;;;11.80;99.90;;;;;;4980420;28;20038;-67
2024/04/02 10:40:18;;;;;;;6.45;3.75;;;11.90;99.90;;;;;;4976751;28;20039;-67
2024/04/02 10:42:48;;;;;;;9.95;4.15;;;12.20;99.90;;;;;;4981596;28;20080;-67
2024/04/02 10:45:15;;;;;;;8.45;3.92;;;12.30;99.90;;;;;;4981369;28;20041;-67
2024/04/02 10:47:51;;;;;;;8.20;3.35;;;12.50;99.90;;;;;;4979781;28;20070;-67
2024/04/02 10:50:21;;;;;;;10.05;2.97;;;12.60;99.90;;;;;;4978415;28;20042;-67
2024/04/02 10:52:48;;;;;;;8.10;3.30;;;12.60;99.90;;;;;;4984702;28;20130;-67
2024/04/02 10:55:13;;;;;;;8.50;3.03;;;12.70;99.90;;;;;;4982031;28;20432;-67
2024/04/02 10:57:40;;;;;;;8.27;2.47;;;12.70;99.90;;;;;;4984584;28;20039;-67
2024/04/02 11:00:08;;;;;;;9.40;2.92;;;12.80;99.90;;;;;;4979269;28;20465;-67
2024/04/02 11:02:35;;;;;;;7.47;2.50;;;12.80;99.90;;;;;;4981209;28;20121;-67
2024/04/02 11:05:03;;;;;;;7.85;2.53;;;12.80;99.90;;;;;;4983947;28;20118;-67
2024/04/02 11:07:29;;;;;;;9.63;2.40;;;12.70;99.90;;;;;;4981722;28;20078;-67
2024/04/02 11:09:56;;;;;;;10.90;3.22;;;12.50;99.90;;;;;;4948169;28;20102;-67
2024/04/02 11:12:24;;;;;;;8.48;2.55;;;12.70;99.90;;;;;;4968682;28;20057;-67
2024/04/02 11:14:53;;;;;;;7.55;2.40;;;12.60;99.90;;;;;;4981118;28;20109;-67
2024/04/02 11:17:20;;;;;;;6.82;2.38;;;12.60;99.90;;;;;;4981701;28;20050;-67
2024/04/02 11:19:45;;;;;;;6.60;2.00;;;12.60;99.90;;;;;;4980135;28;20078;-67
2024/04/02 11:25:08;;;;;;;7.18;1.90;;;12.70;99.90;;;;;;4981285;28;20051;-67
2024/04/02 11:27:33;;;;;;;5.90;2.15;;;12.70;99.90;;;;;;4981040;28;20034;-67
2024/04/02 11:30:00;;;;;;;5.72;1.38;;;12.70;99.90;;;;;;4979836;28;20141;-67
2024/04/02 11:32:27;;;;;;;9.15;2.20;;;12.70;99.90;;;;;;4979429;28;20124;-67
2024/04/02 11:35:01;;;;;;;6.68;1.98;;;12.70;99.90;;;;;;4980222;28;20129;-67
2024/04/02 11:37:32;;;;;;;8.40;2.40;;;12.70;99.90;;;;;;4981537;28;20126;-67
2024/04/02 11:39:59;;;;;;;7.45;2.78;;;12.70;99.90;;;;;;4978222;28;20038;-67
2024/04/02 11:42:25;;;;;;;8.20;2.83;;;12.70;99.90;;;;;;4980349;28;20034;-67
2024/04/02 11:44:54;;;;;;;6.82;2.38;;;12.60;99.90;;;;;;4979125;28;20038;-67
2024/04/02 11:47:21;;;;;;;5.10;2.65;;;12.60;99.90;;;;;;4982293;28;20094;-67
2024/04/02 11:49:46;;;;;;;8.45;2.50;;;12.60;99.90;;;;;;4979288;28;20041;-67
2024/04/02 11:52:12;;;;;;;6.78;2.72;;;12.60;99.90;;;;;;4979609;28;20050;-67
2024/04/02 11:54:38;;;;;;;9.95;3.08;;;12.60;99.90;;;;;;4982026;28;20047;-67
2024/04/02 12:00:07;;;;;;;6.03;1.87;;;12.70;99.90;;;;;;4979690;28;20051;-67
2024/04/02 12:02:34;;;;;;;8.15;1.70;;;12.80;99.90;;;;;;4981249;28;20043;-67
2024/04/02 12:05:00;;;;;;;5.55;1.40;;;12.90;99.90;;;;;;4980910;28;20557;-67
2024/04/02 12:07:27;;;;;;;5.63;1.92;;;12.90;99.90;;;;;;4983612;28;20045;-67
2024/04/02 12:09:58;;;;;;;6.47;1.40;;;12.70;99.90;;;;;;4978972;28;20085;-67
2024/04/02 12:12:24;;;;;;;9.43;1.52;;;12.70;99.90;;;;;;4986287;28;20073;-67
2024/04/02 12:14:50;;;;;;;10.35;1.10;;;12.70;99.90;;;;;;4984301;28;20062;-67
2024/04/02 12:17:16;;;;;;;4.10;0.75;;;12.70;99.90;;;;;;4988053;28;20069;-67
2024/04/02 12:19:41;;;;;;;6.22;1.10;;;12.70;99.90;;;;;;4981261;28;20106;-67
2024/04/02 12:22:09;;;;;;;4.10;1.05;;;12.90;99.90;;;;;;4983481;28;20038;-67
2024/04/02 12:24:35;;;;;;;5.18;1.40;;;13.00;99.90;;;;;;4986854;28;20033;-67
2024/04/02 12:27:00;;;;;;;5.55;1.27;;;13.20;99.90;;;;;;4984507;28;20051;-67
2024/04/02 12:29:26;;;;;;;4.82;1.20;;;13.40;99.90;;;;;;4981732;28;20576;-67
2024/04/02 12:31:52;;;;;;;6.50;1.02;;;13.40;99.90;;;;;;4978444;28;20054;-68
2024/04/02 12:34:18;;;;;;;6.43;1.50;;;13.40;99.90;;;;;;4988426;28;20034;-67
2024/04/02 12:36:44;;;;;;;6.28;1.50;;;13.50;99.90;;;;;;4984596;28;20047;-68
2024/04/02 12:39:11;;;;;;;11.27;2.97;;;13.60;99.90;;;;;;4985518;28;20039;-67
2024/04/02 12:41:38;;;;;;;6.65;1.80;;;13.70;99.90;;;;;;4984392;28;20080;-67
2024/04/02 12:44:06;;;;;;;8.18;2.95;;;13.50;99.90;;;;;;4982519;28;20062;-68
2024/04/02 12:46:32;;;;;;;6.47;2.42;;;13.40;99.90;;;;;;4981204;28;20073;-67
2024/04/02 12:48:58;;;;;;;5.72;1.92;;;13.30;99.90;;;;;;4983408;28;20037;-67
2024/04/02 12:51:24;;;;;;;5.53;1.50;;;13.20;99.90;;;;;;4978413;28;20066;-68
2024/04/02 12:53:50;;;;;;;9.45;1.70;;;13.10;99.90;;;;;;4983049;28;20133;-67
2024/04/02 12:56:15;;;;;;;6.07;1.98;;;13.00;99.90;;;;;;4981257;28;20042;-67